TFFRTNCM

Guest
Details From TFFR - Pointe a Pitre Le Raizet
To TNCM - St Maarten - Princess Juliana Intl
Flight Number -
Tags generated
Created
Modified
Stats Distance 140 nm / 260 km
Max Altitude 10,700 ft / 3,261 m
Waypoints 4
Social Downloads 2
Likes 0
Share VATSIM

Download

Looking for another format? Having issues loading an existing format? Contact us
Advertisement - Login to hide

Notes

Basic altitude profile: - Ascent Rate: 3000ft/min - Ascent Speed: 225kts - Cruise Altitude: 20000ft - Cruise Speed: 320kts - Descent Rate: 1000ft/min - Descent Speed: 200kts Options: - Use NATs: yes - Use PACOTS: yes - Use low airways: yes - Use high airways: yes

Route

TFFR PPR A517 BIMBO TNCM

ID Type Via Altitude Latitude Longitude Leg Dist Tot Dist Heading (true) Name
O TFFR APT - 0 ft / 0 m 16.26531˚ -61.53181˚ - 0 nm - Pointe a Pitre Le Raizet
PPR DME - 100 ft / 30 m 16.26519˚ -61.54014˚ 0 nm 0 nm 269° / 269° POINTE A PITRE VOR-DME
BIMBO FIX A517 (AWY-LO) 10,700 ft / 3,261 m 16.62667˚ -61.96028˚ 32 nm 32 nm 312° / 312° -
O TNCM APT - 0 ft / 0 m 18.04089˚ -63.10897˚ 107 nm 140 nm 322° / 322° St Maarten - Princess Juliana Intl

Altitude Profile

Advertisement - Login to hide

TFFR

Details ICAO TFFR (PTP)
Name Pointe a Pitre Le Raizet
Region France (Guadeloupe, Martinique, Saint Barthélemy, Saint Martin)
Timezone America/Guadeloupe (UTC-4.0)
Stats Elevation 35 ft / 11 m (AMSL)
Location 16.265306° -61.531808°
Runways 1
Magnetic Variation 14.857° W

METAR

TFFR 150300Z AUTO 11004KT CAVOK 24/20 Q1017 NOSIG

Decode

TAF

TAF TFFR 141700Z 1418/1518 10008KT 9999 SCT025 PROB30 TEMPO 1418/1518 4000 SHRA SCT015TCU

Decode

Departure Runways

ID Width Length Bearing (true) Bearing (mag) Surface Threshold Offset Overrun Length
11 148 ft / 45 m 11,513 ft / 3,509 m 100.94° 115.80° Asphalt 0 ft / 0 m 0 ft / 0 m
29 148 ft / 45 m 11,513 ft / 3,509 m 280.95° 295.81° Asphalt 0 ft / 0 m 0 ft / 0 m

TNCM

Details ICAO TNCM (SXM)
Name St Maarten - Princess Juliana Intl
Region Caribbean Netherlands, Aruba, Curaçao, Sint Maarten
Timezone Unknown (UTC+0.0)
Stats Elevation 12 ft / 4 m (AMSL)
Location 18.040889° -63.108974°
Runways 1
Magnetic Variation 14.325° W

METAR

Not found

TAF

TAF TNCM 142320Z 1500/1524 07008KT P6SM SCT020 FM151200 06017KT P6SM VCSH FEW020 SCT040 FM152200 07012KT P6SM FEW022

Decode

Destination Runways

ID Width Length Bearing (true) Bearing (mag) Surface Threshold Offset Overrun Length
10 148 ft / 45 m 7,464 ft / 2,275 m 81.43° 95.76° Asphalt 0 ft / 0 m 151 ft / 46 m
28 148 ft / 45 m 7,464 ft / 2,275 m 261.44° 275.77° Asphalt 397 ft / 121 m 0 ft / 0 m

Popular Alternatives